sensor_id;sensor_type;location;lat;lon;timestamp;P1;durP1;ratioP1;P2;durP2;ratioP2
47401;SDS011;33155;48.370;-3.750;2022-07-23T06:01:25;0.90;;;0.75;;
47401;SDS011;33155;48.370;-3.750;2022-07-23T06:03:50;0.82;;;0.50;;
47401;SDS011;33155;48.370;-3.750;2022-07-23T06:06:16;0.50;;;0.47;;
47401;SDS011;33155;48.370;-3.750;2022-07-23T06:08:41;0.95;;;0.60;;
47401;SDS011;33155;48.370;-3.750;2022-07-23T06:11:07;1.02;;;0.70;;
47401;SDS011;33155;48.370;-3.750;2022-07-23T06:13:33;0.70;;;0.60;;
47401;SDS011;33155;48.370;-3.750;2022-07-23T06:15:58;0.55;;;0.50;;
47401;SDS011;33155;48.370;-3.750;2022-07-23T06:18:24;1.20;;;1.00;;
47401;SDS011;33155;48.370;-3.750;2022-07-23T06:20:49;0.77;;;0.70;;
47401;SDS011;33155;48.370;-3.750;2022-07-23T06:23:15;0.57;;;0.50;;
47401;SDS011;33155;48.370;-3.750;2022-07-23T06:25:40;0.50;;;0.47;;
47401;SDS011;33155;48.370;-3.750;2022-07-23T06:28:06;0.82;;;0.77;;
47401;SDS011;33155;48.370;-3.750;2022-07-23T06:30:31;1.05;;;0.75;;
47401;SDS011;33155;48.370;-3.750;2022-07-23T06:32:57;0.63;;;0.63;;
47401;SDS011;33155;48.370;-3.750;2022-07-23T06:35:23;1.27;;;0.65;;
47401;SDS011;33155;48.370;-3.750;2022-07-23T06:37:48;0.68;;;0.65;;
47401;SDS011;33155;48.370;-3.750;2022-07-23T06:40:14;0.85;;;0.80;;
47401;SDS011;33155;48.370;-3.750;2022-07-23T06:42:39;0.50;;;0.40;;
47401;SDS011;33155;48.370;-3.750;2022-07-23T06:45:05;0.60;;;0.60;;
47401;SDS011;33155;48.370;-3.750;2022-07-23T06:47:31;0.50;;;0.50;;
47401;SDS011;33155;48.370;-3.750;2022-07-23T06:49:57;1.00;;;0.70;;
47401;SDS011;33155;48.370;-3.750;2022-07-23T06:52:23;0.85;;;0.80;;
47401;SDS011;33155;48.370;-3.750;2022-07-23T06:54:48;0.75;;;0.70;;
47401;SDS011;33155;48.370;-3.750;2022-07-23T06:57:14;0.95;;;0.73;;
47401;SDS011;33155;48.370;-3.750;2022-07-23T06:59:39;0.75;;;0.65;;
47401;SDS011;33155;48.370;-3.750;2022-07-23T07:02:05;1.25;;;0.85;;
47401;SDS011;33155;48.370;-3.750;2022-07-23T07:04:31;1.02;;;0.80;;
47401;SDS011;33155;48.370;-3.750;2022-07-23T07:06:57;1.60;;;1.17;;
47401;SDS011;33155;48.370;-3.750;2022-07-23T07:09:23;1.30;;;1.10;;
47401;SDS011;33155;48.370;-3.750;2022-07-23T07:11:48;2.30;;;1.17;;
47401;SDS011;33155;48.370;-3.750;2022-07-23T07:14:14;1.90;;;1.23;;
47401;SDS011;33155;48.370;-3.750;2022-07-23T07:16:39;1.63;;;1.27;;
47401;SDS011;33155;48.370;-3.750;2022-07-23T07:19:05;1.27;;;1.00;;
47401;SDS011;33155;48.370;-3.750;2022-07-23T07:21:30;1.88;;;1.38;;
47401;SDS011;33155;48.370;-3.750;2022-07-23T07:23:56;1.92;;;1.48;;
47401;SDS011;33155;48.370;-3.750;2022-07-23T07:26:22;2.33;;;1.35;;
47401;SDS011;33155;48.370;-3.750;2022-07-23T07:28:47;2.38;;;1.25;;
47401;SDS011;33155;48.370;-3.750;2022-07-23T07:31:12;1.45;;;1.33;;
47401;SDS011;33155;48.370;-3.750;2022-07-23T07:33:38;2.38;;;1.30;;
47401;SDS011;33155;48.370;-3.750;2022-07-23T07:36:04;2.13;;;1.63;;
47401;SDS011;33155;48.370;-3.750;2022-07-23T07:38:29;3.28;;;2.10;;
47401;SDS011;33155;48.370;-3.750;2022-07-23T07:40:55;2.40;;;1.77;;
47401;SDS011;33155;48.370;-3.750;2022-07-23T07:43:21;2.13;;;1.80;;
47401;SDS011;33155;48.370;-3.750;2022-07-23T07:45:46;3.47;;;2.50;;
47401;SDS011;33155;48.370;-3.750;2022-07-23T07:48:12;3.58;;;2.67;;
47401;SDS011;33155;48.370;-3.750;2022-07-23T07:50:37;3.75;;;1.90;;
47401;SDS011;33155;48.370;-3.750;2022-07-23T07:53:03;2.85;;;2.42;;
47401;SDS011;33155;48.370;-3.750;2022-07-23T07:55:28;2.72;;;1.98;;
47401;SDS011;33155;48.370;-3.750;2022-07-23T07:57:54;3.28;;;2.47;;
47401;SDS011;33155;48.370;-3.750;2022-07-23T08:00:19;3.50;;;1.85;;
47401;SDS011;33155;48.370;-3.750;2022-07-23T08:02:49;2.30;;;1.60;;
47401;SDS011;33155;48.370;-3.750;2022-07-23T08:05:23;2.33;;;2.00;;
47401;SDS011;33155;48.370;-3.750;2022-07-23T08:07:49;1.95;;;1.73;;
47401;SDS011;33155;48.370;-3.750;2022-07-23T08:10:15;1.60;;;1.50;;
47401;SDS011;33155;48.370;-3.750;2022-07-23T08:12:51;2.20;;;1.55;;
47401;SDS011;33155;48.370;-3.750;2022-07-23T08:15:19;1.88;;;1.48;;
47401;SDS011;33155;48.370;-3.750;2022-07-23T08:17:45;2.85;;;1.60;;
47401;SDS011;33155;48.370;-3.750;2022-07-23T08:20:12;3.92;;;1.92;;
47401;SDS011;33155;48.370;-3.750;2022-07-23T08:25:15;3.08;;;1.60;;
47401;SDS011;33155;48.370;-3.750;2022-07-23T08:27:44;1.75;;;1.42;;
47401;SDS011;33155;48.370;-3.750;2022-07-23T08:30:10;3.92;;;2.25;;
47401;SDS011;33155;48.370;-3.750;2022-07-23T08:35:24;2.33;;;1.80;;
47401;SDS011;33155;48.370;-3.750;2022-07-23T08:37:54;1.83;;;1.52;;
47401;SDS011;33155;48.370;-3.750;2022-07-23T08:40:20;2.00;;;1.80;;
47401;SDS011;33155;48.370;-3.750;2022-07-23T08:42:47;1.90;;;1.55;;
47401;SDS011;33155;48.370;-3.750;2022-07-23T08:45:16;2.13;;;1.50;;
47401;SDS011;33155;48.370;-3.750;2022-07-23T08:47:42;2.17;;;1.63;;
47401;SDS011;33155;48.370;-3.750;2022-07-23T08:50:08;2.20;;;1.42;;
47401;SDS011;33155;48.370;-3.750;2022-07-23T08:52:35;2.63;;;1.20;;
47401;SDS011;33155;48.370;-3.750;2022-07-23T08:55:01;1.85;;;1.27;;
47401;SDS011;33155;48.370;-3.750;2022-07-23T08:57:27;1.70;;;1.42;;
47401;SDS011;33155;48.370;-3.750;2022-07-23T08:59:52;1.77;;;1.60;;
47401;SDS011;33155;48.370;-3.750;2022-07-23T09:02:18;1.20;;;1.10;;
47401;SDS011;33155;48.370;-3.750;2022-07-23T09:04:43;1.55;;;1.35;;
47401;SDS011;33155;48.370;-3.750;2022-07-23T09:07:09;2.15;;;1.65;;
47401;SDS011;33155;48.370;-3.750;2022-07-23T09:09:34;2.13;;;1.33;;
47401;SDS011;33155;48.370;-3.750;2022-07-23T09:12:05;1.63;;;1.45;;
47401;SDS011;33155;48.370;-3.750;2022-07-23T09:14:40;1.23;;;1.05;;
47401;SDS011;33155;48.370;-3.750;2022-07-23T09:19:33;1.75;;;1.10;;
47401;SDS011;33155;48.370;-3.750;2022-07-23T09:22:15;1.00;;;0.90;;
47401;SDS011;33155;48.370;-3.750;2022-07-23T09:27:53;1.33;;;0.90;;
47401;SDS011;33155;48.370;-3.750;2022-07-23T09:30:27;1.13;;;0.90;;
47401;SDS011;33155;48.370;-3.750;2022-07-23T09:38:12;1.15;;;0.93;;
47401;SDS011;33155;48.370;-3.750;2022-07-23T09:40:38;1.63;;;1.02;;
47401;SDS011;33155;48.370;-3.750;2022-07-23T09:43:03;3.03;;;1.05;;
47401;SDS011;33155;48.370;-3.750;2022-07-23T09:45:29;2.05;;;1.08;;
47401;SDS011;33155;48.370;-3.750;2022-07-23T09:48:11;1.23;;;0.77;;
47401;SDS011;33155;48.370;-3.750;2022-07-23T09:50:40;0.90;;;0.82;;
47401;SDS011;33155;48.370;-3.750;2022-07-23T09:53:06;0.90;;;0.80;;
47401;SDS011;33155;48.370;-3.750;2022-07-23T09:55:32;1.80;;;1.00;;
47401;SDS011;33155;48.370;-3.750;2022-07-23T09:58:02;1.13;;;0.80;;
47401;SDS011;33155;48.370;-3.750;2022-07-23T10:00:29;1.30;;;0.82;;
47401;SDS011;33155;48.370;-3.750;2022-07-23T10:02:56;1.00;;;0.93;;
47401;SDS011;33155;48.370;-3.750;2022-07-23T10:05:22;0.90;;;0.90;;
47401;SDS011;33155;48.370;-3.750;2022-07-23T10:07:48;0.95;;;0.95;;
47401;SDS011;33155;48.370;-3.750;2022-07-23T10:10:16;1.00;;;0.70;;
47401;SDS011;33155;48.370;-3.750;2022-07-23T10:12:45;0.80;;;0.80;;
47401;SDS011;33155;48.370;-3.750;2022-07-23T10:15:12;1.00;;;1.00;;
47401;SDS011;33155;48.370;-3.750;2022-07-23T10:17:37;0.75;;;0.75;;
47401;SDS011;33155;48.370;-3.750;2022-07-23T10:20:03;1.10;;;0.98;;
47401;SDS011;33155;48.370;-3.750;2022-07-23T10:22:33;0.98;;;0.70;;
47401;SDS011;33155;48.370;-3.750;2022-07-23T10:27:58;0.70;;;0.70;;
47401;SDS011;33155;48.370;-3.750;2022-07-23T10:33:17;2.17;;;0.63;;
47401;SDS011;33155;48.370;-3.750;2022-07-23T10:35:47;0.63;;;0.63;;
47401;SDS011;33155;48.370;-3.750;2022-07-23T10:38:37;1.08;;;0.75;;
47401;SDS011;33155;48.370;-3.750;2022-07-23T10:41:13;0.70;;;0.50;;
47401;SDS011;33155;48.370;-3.750;2022-07-23T10:43:39;1.15;;;0.98;;
47401;SDS011;33155;48.370;-3.750;2022-07-23T10:49:21;0.80;;;0.80;;
47401;SDS011;33155;48.370;-3.750;2022-07-23T10:52:23;0.85;;;0.75;;
47401;SDS011;33155;48.370;-3.750;2022-07-23T10:57:46;1.38;;;1.00;;
47401;SDS011;33155;48.370;-3.750;2022-07-23T11:00:36;1.02;;;0.93;;
47401;SDS011;33155;48.370;-3.750;2022-07-23T11:03:03;0.85;;;0.85;;
47401;SDS011;33155;48.370;-3.750;2022-07-23T11:05:42;1.67;;;1.13;;
47401;SDS011;33155;48.370;-3.750;2022-07-23T11:10:40;4.03;;;0.85;;
47401;SDS011;33155;48.370;-3.750;2022-07-23T11:24:03;1.00;;;0.90;;
47401;SDS011;33155;48.370;-3.750;2022-07-23T11:31:56;1.58;;;0.93;;
47401;SDS011;33155;48.370;-3.750;2022-07-23T11:34:41;1.30;;;1.17;;
47401;SDS011;33155;48.370;-3.750;2022-07-23T11:37:08;1.25;;;1.00;;
47401;SDS011;33155;48.370;-3.750;2022-07-23T11:39:35;0.70;;;0.70;;
47401;SDS011;33155;48.370;-3.750;2022-07-23T11:42:02;1.10;;;1.00;;
47401;SDS011;33155;48.370;-3.750;2022-07-23T11:44:35;1.08;;;0.98;;
47401;SDS011;33155;48.370;-3.750;2022-07-23T11:49:28;1.75;;;0.93;;
47401;SDS011;33155;48.370;-3.750;2022-07-23T11:52:10;1.10;;;1.00;;
47401;SDS011;33155;48.370;-3.750;2022-07-23T11:54:40;1.50;;;1.13;;
47401;SDS011;33155;48.370;-3.750;2022-07-23T11:57:14;1.38;;;0.95;;
47401;SDS011;33155;48.370;-3.750;2022-07-23T11:59:40;1.33;;;0.98;;
47401;SDS011;33155;48.370;-3.750;2022-07-23T12:02:07;0.80;;;0.80;;
47401;SDS011;33155;48.370;-3.750;2022-07-23T12:04:52;0.70;;;0.70;;
47401;SDS011;33155;48.370;-3.750;2022-07-23T12:12:54;0.80;;;0.80;;
47401;SDS011;33155;48.370;-3.750;2022-07-23T12:15:25;1.15;;;1.05;;
47401;SDS011;33155;48.370;-3.750;2022-07-23T12:17:55;1.10;;;0.88;;
47401;SDS011;33155;48.370;-3.750;2022-07-23T12:20:23;1.10;;;1.00;;
47401;SDS011;33155;48.370;-3.750;2022-07-23T12:22:52;2.13;;;0.80;;
47401;SDS011;33155;48.370;-3.750;2022-07-23T12:25:22;1.67;;;0.90;;
47401;SDS011;33155;48.370;-3.750;2022-07-23T12:28:02;0.70;;;0.65;;
47401;SDS011;33155;48.370;-3.750;2022-07-23T12:30:30;0.90;;;0.90;;
47401;SDS011;33155;48.370;-3.750;2022-07-23T12:33:00;0.88;;;0.88;;
47401;SDS011;33155;48.370;-3.750;2022-07-23T12:35:33;2.40;;;0.90;;
47401;SDS011;33155;48.370;-3.750;2022-07-23T12:38:02;0.68;;;0.60;;
47401;SDS011;33155;48.370;-3.750;2022-07-23T12:40:34;1.98;;;0.80;;
47401;SDS011;33155;48.370;-3.750;2022-07-23T12:43:08;1.95;;;1.25;;
47401;SDS011;33155;48.370;-3.750;2022-07-23T12:45:48;1.77;;;1.00;;
47401;SDS011;33155;48.370;-3.750;2022-07-23T12:48:26;1.00;;;0.95;;
47401;SDS011;33155;48.370;-3.750;2022-07-23T12:50:57;1.08;;;0.90;;
47401;SDS011;33155;48.370;-3.750;2022-07-23T12:53:25;0.75;;;0.75;;
47401;SDS011;33155;48.370;-3.750;2022-07-23T12:56:12;1.00;;;0.80;;
47401;SDS011;33155;48.370;-3.750;2022-07-23T12:58:49;0.82;;;0.60;;
47401;SDS011;33155;48.370;-3.750;2022-07-23T13:03:53;0.70;;;0.70;;
47401;SDS011;33155;48.370;-3.750;2022-07-23T13:06:46;1.10;;;0.80;;
47401;SDS011;33155;48.370;-3.750;2022-07-23T13:09:16;0.80;;;0.73;;
47401;SDS011;33155;48.370;-3.750;2022-07-23T13:11:46;0.60;;;0.60;;
47401;SDS011;33155;48.370;-3.750;2022-07-23T13:14:12;1.65;;;1.00;;
47401;SDS011;33155;48.370;-3.750;2022-07-23T13:16:38;0.75;;;0.73;;
47401;SDS011;33155;48.370;-3.750;2022-07-23T13:19:05;3.47;;;1.10;;
47401;SDS011;33155;48.370;-3.750;2022-07-23T13:21:31;1.00;;;0.90;;
47401;SDS011;33155;48.370;-3.750;2022-07-23T13:23:57;1.27;;;0.70;;
47401;SDS011;33155;48.370;-3.750;2022-07-23T13:26:23;0.60;;;0.60;;
47401;SDS011;33155;48.370;-3.750;2022-07-23T13:28:49;0.90;;;0.82;;
47401;SDS011;33155;48.370;-3.750;2022-07-23T13:31:15;1.80;;;1.02;;
47401;SDS011;33155;48.370;-3.750;2022-07-23T13:33:41;1.63;;;0.93;;
47401;SDS011;33155;48.370;-3.750;2022-07-23T13:36:06;1.95;;;1.20;;
47401;SDS011;33155;48.370;-3.750;2022-07-23T13:38:32;1.33;;;0.82;;
47401;SDS011;33155;48.370;-3.750;2022-07-23T13:40:58;1.15;;;0.57;;
47401;SDS011;33155;48.370;-3.750;2022-07-23T13:43:24;1.00;;;0.63;;
47401;SDS011;33155;48.370;-3.750;2022-07-23T13:45:51;0.57;;;0.57;;
47401;SDS011;33155;48.370;-3.750;2022-07-23T13:48:17;0.65;;;0.65;;
47401;SDS011;33155;48.370;-3.750;2022-07-23T13:50:43;0.65;;;0.60;;
47401;SDS011;33155;48.370;-3.750;2022-07-23T13:53:10;1.42;;;0.80;;
47401;SDS011;33155;48.370;-3.750;2022-07-23T13:55:38;2.75;;;1.38;;
47401;SDS011;33155;48.370;-3.750;2022-07-23T13:58:04;0.60;;;0.60;;
47401;SDS011;33155;48.370;-3.750;2022-07-23T14:00:33;0.77;;;0.75;;
47401;SDS011;33155;48.370;-3.750;2022-07-23T14:03:00;1.05;;;0.75;;
47401;SDS011;33155;48.370;-3.750;2022-07-23T14:05:26;1.00;;;0.70;;
47401;SDS011;33155;48.370;-3.750;2022-07-23T14:07:52;1.02;;;0.95;;
47401;SDS011;33155;48.370;-3.750;2022-07-23T14:10:19;1.30;;;0.88;;
47401;SDS011;33155;48.370;-3.750;2022-07-23T14:12:45;0.80;;;0.75;;
47401;SDS011;33155;48.370;-3.750;2022-07-23T14:15:11;0.90;;;0.68;;
47401;SDS011;33155;48.370;-3.750;2022-07-23T14:17:37;0.68;;;0.60;;
47401;SDS011;33155;48.370;-3.750;2022-07-23T14:20:04;0.95;;;0.60;;
47401;SDS011;33155;48.370;-3.750;2022-07-23T14:22:31;1.42;;;0.60;;
47401;SDS011;33155;48.370;-3.750;2022-07-23T14:24:56;1.02;;;0.88;;
47401;SDS011;33155;48.370;-3.750;2022-07-23T14:27:23;0.70;;;0.70;;
47401;SDS011;33155;48.370;-3.750;2022-07-23T14:29:49;0.70;;;0.70;;
47401;SDS011;33155;48.370;-3.750;2022-07-23T14:32:15;1.35;;;0.50;;
47401;SDS011;33155;48.370;-3.750;2022-07-23T14:34:40;0.60;;;0.60;;
47401;SDS011;33155;48.370;-3.750;2022-07-23T14:37:06;0.60;;;0.60;;
47401;SDS011;33155;48.370;-3.750;2022-07-23T14:39:31;0.55;;;0.50;;
47401;SDS011;33155;48.370;-3.750;2022-07-23T14:41:57;1.30;;;0.95;;
47401;SDS011;33155;48.370;-3.750;2022-07-23T14:44:22;1.35;;;0.70;;
47401;SDS011;33155;48.370;-3.750;2022-07-23T14:46:48;1.10;;;0.82;;
47401;SDS011;33155;48.370;-3.750;2022-07-23T14:49:13;1.23;;;0.75;;
47401;SDS011;33155;48.370;-3.750;2022-07-23T14:51:39;0.68;;;0.68;;
47401;SDS011;33155;48.370;-3.750;2022-07-23T14:54:07;1.67;;;1.00;;
47401;SDS011;33155;48.370;-3.750;2022-07-23T14:56:32;0.55;;;0.55;;
47401;SDS011;33155;48.370;-3.750;2022-07-23T14:58:58;0.80;;;0.80;;
47401;SDS011;33155;48.370;-3.750;2022-07-23T15:01:24;0.60;;;0.60;;
47401;SDS011;33155;48.370;-3.750;2022-07-23T15:03:49;0.85;;;0.77;;
47401;SDS011;33155;48.370;-3.750;2022-07-23T15:06:15;0.55;;;0.55;;
47401;SDS011;33155;48.370;-3.750;2022-07-23T15:08:42;0.77;;;0.63;;
47401;SDS011;33155;48.370;-3.750;2022-07-23T15:11:07;0.50;;;0.50;;
47401;SDS011;33155;48.370;-3.750;2022-07-23T15:13:34;0.88;;;0.80;;
47401;SDS011;33155;48.370;-3.750;2022-07-23T15:16:00;0.98;;;0.65;;
47401;SDS011;33155;48.370;-3.750;2022-07-23T15:18:26;0.80;;;0.70;;
47401;SDS011;33155;48.370;-3.750;2022-07-23T15:20:51;0.73;;;0.73;;
47401;SDS011;33155;48.370;-3.750;2022-07-23T15:23:17;1.33;;;1.08;;
47401;SDS011;33155;48.370;-3.750;2022-07-23T15:25:42;1.25;;;0.70;;
47401;SDS011;33155;48.370;-3.750;2022-07-23T15:28:08;1.13;;;0.70;;
47401;SDS011;33155;48.370;-3.750;2022-07-23T15:30:33;0.70;;;0.70;;
47401;SDS011;33155;48.370;-3.750;2022-07-23T15:32:59;0.93;;;0.70;;
47401;SDS011;33155;48.370;-3.750;2022-07-23T15:35:24;0.60;;;0.52;;
47401;SDS011;33155;48.370;-3.750;2022-07-23T15:37:49;1.08;;;0.98;;
47401;SDS011;33155;48.370;-3.750;2022-07-23T15:40:15;0.82;;;0.70;;
47401;SDS011;33155;48.370;-3.750;2022-07-23T15:42:40;0.50;;;0.50;;
47401;SDS011;33155;48.370;-3.750;2022-07-23T15:45:07;0.70;;;0.70;;
47401;SDS011;33155;48.370;-3.750;2022-07-23T15:47:34;0.82;;;0.82;;
47401;SDS011;33155;48.370;-3.750;2022-07-23T15:49:59;0.52;;;0.50;;
47401;SDS011;33155;48.370;-3.750;2022-07-23T15:52:25;0.73;;;0.73;;
47401;SDS011;33155;48.370;-3.750;2022-07-23T15:54:52;2.30;;;0.73;;
47401;SDS011;33155;48.370;-3.750;2022-07-23T15:57:17;0.50;;;0.50;;
47401;SDS011;33155;48.370;-3.750;2022-07-23T15:59:43;1.02;;;0.70;;
47401;SDS011;33155;48.370;-3.750;2022-07-23T16:02:08;0.82;;;0.82;;
47401;SDS011;33155;48.370;-3.750;2022-07-23T16:04:34;0.70;;;0.68;;
47401;SDS011;33155;48.370;-3.750;2022-07-23T16:07:00;0.70;;;0.70;;
47401;SDS011;33155;48.370;-3.750;2022-07-23T16:09:25;2.08;;;1.00;;
47401;SDS011;33155;48.370;-3.750;2022-07-23T16:11:52;0.65;;;0.65;;
47401;SDS011;33155;48.370;-3.750;2022-07-23T16:14:20;0.93;;;0.80;;
47401;SDS011;33155;48.370;-3.750;2022-07-23T16:16:45;0.63;;;0.50;;
47401;SDS011;33155;48.370;-3.750;2022-07-23T16:19:11;0.90;;;0.73;;
47401;SDS011;33155;48.370;-3.750;2022-07-23T16:21:36;0.90;;;0.70;;
47401;SDS011;33155;48.370;-3.750;2022-07-23T16:24:02;0.88;;;0.70;;
47401;SDS011;33155;48.370;-3.750;2022-07-23T16:26:28;0.80;;;0.70;;
47401;SDS011;33155;48.370;-3.750;2022-07-23T16:28:53;1.20;;;0.80;;
47401;SDS011;33155;48.370;-3.750;2022-07-23T16:31:19;1.02;;;0.90;;
47401;SDS011;33155;48.370;-3.750;2022-07-23T16:33:44;1.25;;;0.90;;
47401;SDS011;33155;48.370;-3.750;2022-07-23T16:36:12;0.77;;;0.60;;
47401;SDS011;33155;48.370;-3.750;2022-07-23T16:38:38;0.63;;;0.60;;
47401;SDS011;33155;48.370;-3.750;2022-07-23T16:41:04;0.57;;;0.57;;
47401;SDS011;33155;48.370;-3.750;2022-07-23T16:43:31;0.75;;;0.65;;
47401;SDS011;33155;48.370;-3.750;2022-07-23T16:45:57;2.55;;;0.90;;
47401;SDS011;33155;48.370;-3.750;2022-07-23T16:48:26;0.90;;;0.73;;
47401;SDS011;33155;48.370;-3.750;2022-07-23T16:50:51;1.27;;;0.93;;
47401;SDS011;33155;48.370;-3.750;2022-07-23T16:53:17;0.80;;;0.70;;
47401;SDS011;33155;48.370;-3.750;2022-07-23T16:55:42;1.02;;;0.93;;
47401;SDS011;33155;48.370;-3.750;2022-07-23T16:58:08;1.13;;;0.82;;
47401;SDS011;33155;48.370;-3.750;2022-07-23T17:00:34;0.65;;;0.60;;
47401;SDS011;33155;48.370;-3.750;2022-07-23T17:03:00;0.80;;;0.80;;
47401;SDS011;33155;48.370;-3.750;2022-07-23T17:05:25;0.93;;;0.70;;
47401;SDS011;33155;48.370;-3.750;2022-07-23T17:07:51;0.60;;;0.60;;
47401;SDS011;33155;48.370;-3.750;2022-07-23T17:10:18;2.58;;;0.80;;
47401;SDS011;33155;48.370;-3.750;2022-07-23T17:12:44;0.70;;;0.70;;
47401;SDS011;33155;48.370;-3.750;2022-07-23T17:15:10;0.90;;;0.65;;
47401;SDS011;33155;48.370;-3.750;2022-07-23T17:17:35;1.17;;;0.70;;
47401;SDS011;33155;48.370;-3.750;2022-07-23T17:20:03;0.73;;;0.73;;
47401;SDS011;33155;48.370;-3.750;2022-07-23T17:22:30;1.15;;;0.85;;
47401;SDS011;33155;48.370;-3.750;2022-07-23T17:24:56;0.70;;;0.70;;
47401;SDS011;33155;48.370;-3.750;2022-07-23T17:27:21;0.75;;;0.75;;
47401;SDS011;33155;48.370;-3.750;2022-07-23T17:29:47;1.92;;;0.90;;
47401;SDS011;33155;48.370;-3.750;2022-07-23T17:32:12;0.60;;;0.60;;
47401;SDS011;33155;48.370;-3.750;2022-07-23T17:34:38;0.70;;;0.70;;
47401;SDS011;33155;48.370;-3.750;2022-07-23T17:37:04;0.60;;;0.60;;
47401;SDS011;33155;48.370;-3.750;2022-07-23T17:39:29;0.93;;;0.73;;
47401;SDS011;33155;48.370;-3.750;2022-07-23T17:41:55;0.40;;;0.40;;
47401;SDS011;33155;48.370;-3.750;2022-07-23T17:44:20;0.40;;;0.40;;
47401;SDS011;33155;48.370;-3.750;2022-07-23T17:46:46;0.50;;;0.50;;
47401;SDS011;33155;48.370;-3.750;2022-07-23T17:49:12;0.65;;;0.55;;
47401;SDS011;33155;48.370;-3.750;2022-07-23T17:51:38;1.02;;;0.63;;
47401;SDS011;33155;48.370;-3.750;2022-07-23T17:54:04;0.80;;;0.80;;
47401;SDS011;33155;48.370;-3.750;2022-07-23T17:56:30;0.90;;;0.60;;
47401;SDS011;33155;48.370;-3.750;2022-07-23T17:58:56;0.80;;;0.70;;
47401;SDS011;33155;48.370;-3.750;2022-07-23T18:01:21;0.55;;;0.55;;
47401;SDS011;33155;48.370;-3.750;2022-07-23T18:03:47;0.60;;;0.60;;
47401;SDS011;33155;48.370;-3.750;2022-07-23T18:06:14;0.70;;;0.65;;
47401;SDS011;33155;48.370;-3.750;2022-07-23T18:08:40;0.80;;;0.68;;
47401;SDS011;33155;48.370;-3.750;2022-07-23T18:11:05;0.70;;;0.70;;
47401;SDS011;33155;48.370;-3.750;2022-07-23T18:13:31;1.35;;;0.60;;
47401;SDS011;33155;48.370;-3.750;2022-07-23T18:15:57;0.60;;;0.60;;
47401;SDS011;33155;48.370;-3.750;2022-07-23T18:18:23;0.40;;;0.40;;
47401;SDS011;33155;48.370;-3.750;2022-07-23T18:20:49;0.77;;;0.60;;
47401;SDS011;33155;48.370;-3.750;2022-07-23T18:23:15;1.27;;;0.68;;
47401;SDS011;33155;48.370;-3.750;2022-07-23T18:25:41;0.70;;;0.68;;
47401;SDS011;33155;48.370;-3.750;2022-07-23T18:28:06;0.82;;;0.60;;
47401;SDS011;33155;48.370;-3.750;2022-07-23T18:30:32;0.70;;;0.50;;
47401;SDS011;33155;48.370;-3.750;2022-07-23T18:32:57;0.60;;;0.60;;
47401;SDS011;33155;48.370;-3.750;2022-07-23T18:35:23;0.60;;;0.60;;
47401;SDS011;33155;48.370;-3.750;2022-07-23T18:37:48;0.85;;;0.52;;
47401;SDS011;33155;48.370;-3.750;2022-07-23T18:40:14;0.50;;;0.50;;
47401;SDS011;33155;48.370;-3.750;2022-07-23T18:42:39;0.60;;;0.60;;
47401;SDS011;33155;48.370;-3.750;2022-07-23T18:45:05;0.77;;;0.70;;
47401;SDS011;33155;48.370;-3.750;2022-07-23T18:47:31;0.50;;;0.50;;
47401;SDS011;33155;48.370;-3.750;2022-07-23T18:49:57;1.00;;;0.60;;
47401;SDS011;33155;48.370;-3.750;2022-07-23T18:52:22;0.50;;;0.50;;
47401;SDS011;33155;48.370;-3.750;2022-07-23T18:54:48;0.57;;;0.57;;
47401;SDS011;33155;48.370;-3.750;2022-07-23T18:57:13;0.75;;;0.60;;
47401;SDS011;33155;48.370;-3.750;2022-07-23T18:59:39;0.52;;;0.52;;
47401;SDS011;33155;48.370;-3.750;2022-07-23T19:02:05;0.50;;;0.50;;
47401;SDS011;33155;48.370;-3.750;2022-07-23T19:04:31;0.82;;;0.60;;
47401;SDS011;33155;48.370;-3.750;2022-07-23T19:06:57;0.47;;;0.47;;
47401;SDS011;33155;48.370;-3.750;2022-07-23T19:09:22;0.47;;;0.47;;
47401;SDS011;33155;48.370;-3.750;2022-07-23T19:11:48;0.50;;;0.50;;
47401;SDS011;33155;48.370;-3.750;2022-07-23T19:14:13;0.55;;;0.40;;
47401;SDS011;33155;48.370;-3.750;2022-07-23T19:16:39;0.47;;;0.47;;
47401;SDS011;33155;48.370;-3.750;2022-07-23T19:19:06;0.95;;;0.60;;
47401;SDS011;33155;48.370;-3.750;2022-07-23T19:21:32;0.40;;;0.40;;
47401;SDS011;33155;48.370;-3.750;2022-07-23T19:23:57;0.45;;;0.45;;
47401;SDS011;33155;48.370;-3.750;2022-07-23T19:26:23;0.90;;;0.60;;
47401;SDS011;33155;48.370;-3.750;2022-07-23T19:28:49;0.45;;;0.40;;
47401;SDS011;33155;48.370;-3.750;2022-07-23T19:31:14;0.30;;;0.30;;
47401;SDS011;33155;48.370;-3.750;2022-07-23T19:33:43;0.35;;;0.35;;
47401;SDS011;33155;48.370;-3.750;2022-07-23T19:36:10;0.52;;;0.50;;
47401;SDS011;33155;48.370;-3.750;2022-07-23T19:38:35;0.90;;;0.60;;
47401;SDS011;33155;48.370;-3.750;2022-07-23T19:41:01;0.50;;;0.32;;
47401;SDS011;33155;48.370;-3.750;2022-07-23T19:43:26;0.60;;;0.40;;
47401;SDS011;33155;48.370;-3.750;2022-07-23T19:45:52;0.50;;;0.50;;
47401;SDS011;33155;48.370;-3.750;2022-07-23T19:48:17;0.30;;;0.30;;
47401;SDS011;33155;48.370;-3.750;2022-07-23T19:50:43;0.30;;;0.30;;
47401;SDS011;33155;48.370;-3.750;2022-07-23T19:53:08;0.20;;;0.20;;
47401;SDS011;33155;48.370;-3.750;2022-07-23T19:55:34;0.30;;;0.30;;
47401;SDS011;33155;48.370;-3.750;2022-07-23T19:57:59;0.63;;;0.30;;
